createdAt,value
2022-10-28T07:55:23.291Z,99.90
2022-10-28T08:00:17.739Z,99.90
2022-10-28T08:42:08.507Z,99.90
2022-10-28T08:47:13.497Z,99.90
2022-10-28T09:14:11.351Z,99.90
2022-10-28T09:19:23.252Z,99.90
2022-10-28T09:24:21.414Z,99.90
2022-10-28T09:29:44.315Z,99.90
2022-10-28T09:34:45.570Z,99.90
2022-10-28T09:39:44.564Z,99.90
2022-10-28T09:44:45.806Z,99.90
2022-10-28T09:49:41.041Z,99.90
2022-10-28T09:54:37.319Z,99.90
2022-10-28T09:59:31.142Z,99.90
2022-10-28T10:04:31.565Z,99.90
2022-10-28T10:09:43.917Z,99.90
2022-10-28T10:14:50.767Z,99.90
2022-10-28T10:20:05.790Z,99.90
2022-10-28T10:25:01.343Z,99.90
2022-10-28T10:29:58.274Z,99.90
2022-10-28T10:34:58.552Z,99.90
2022-10-28T10:40:08.814Z,99.90
2022-10-28T10:45:10.435Z,99.90
2022-10-28T10:50:25.953Z,99.90
2022-10-28T10:55:33.319Z,99.90
2022-10-28T11:00:33.370Z,99.90
2022-10-28T11:05:32.298Z,99.90
2022-10-28T11:10:36.394Z,99.90
2022-10-28T11:15:31.565Z,99.60
2022-10-28T11:20:28.714Z,98.70
2022-10-28T11:25:37.825Z,98.60
2022-10-28T11:30:43.490Z,97.80
2022-10-28T11:35:49.286Z,96.50
2022-10-28T11:40:56.283Z,95.50
2022-10-28T11:45:57.114Z,95.30
2022-10-28T11:51:00.894Z,94.10
2022-10-28T11:56:02.294Z,93.50
2022-10-28T12:01:05.507Z,92.80
2022-10-28T12:06:10.885Z,92.00
2022-10-28T12:11:19.759Z,91.80
2022-10-28T12:16:22.339Z,90.80
2022-10-28T12:21:23.493Z,90.60
2022-10-28T12:26:21.567Z,88.80
2022-10-28T12:31:23.577Z,87.90
2022-10-28T12:36:33.123Z,87.00
2022-10-28T12:41:44.210Z,83.50
2022-10-28T12:51:49.784Z,82.60
2022-10-28T12:56:54.639Z,82.50
2022-10-28T13:01:51.691Z,79.20
2022-10-28T13:07:35.213Z,81.10
2022-10-28T13:13:00.922Z,80.00
2022-10-28T13:18:12.773Z,78.50
2022-10-28T13:23:32.796Z,78.50
2022-10-28T13:28:32.176Z,78.40
2022-10-28T13:33:30.022Z,77.10
2022-10-28T13:38:26.309Z,76.60
2022-10-28T13:43:21.813Z,75.60
2022-10-28T13:48:47.054Z,75.40
2022-10-28T13:53:43.912Z,74.80
2022-10-28T13:58:39.321Z,75.20
2022-10-28T14:03:34.931Z,75.60
2022-10-28T14:08:31.289Z,75.40
2022-10-28T14:13:25.934Z,75.40
2022-10-28T14:24:14.822Z,76.10
2022-10-28T14:29:29.588Z,79.50
2022-10-28T14:34:45.466Z,83.90
2022-10-28T14:39:50.186Z,90.20
2022-10-28T14:45:05.035Z,92.80
2022-10-28T14:50:03.193Z,95.60
2022-10-28T14:55:01.279Z,97.10
2022-10-28T14:59:57.136Z,98.10
2022-10-28T15:05:03.796Z,99.50
2022-10-28T15:10:00.152Z,99.90
2022-10-28T15:14:56.693Z,99.90
2022-10-28T15:19:52.531Z,99.90
2022-10-28T15:25:00.210Z,99.90
2022-10-28T15:29:56.830Z,99.90
2022-10-28T15:34:50.998Z,99.90
2022-10-28T15:39:50.511Z,99.90
2022-10-28T15:44:47.339Z,99.90
2022-10-28T15:49:47.014Z,99.90
2022-10-28T15:54:43.200Z,99.90
2022-10-28T15:59:37.439Z,99.90
2022-10-28T16:04:46.222Z,99.90
2022-10-28T16:09:46.867Z,99.90
2022-10-28T16:14:44.112Z,99.90
2022-10-28T16:19:41.727Z,99.90
2022-10-28T16:24:37.280Z,99.90
